カンクン の空港の天気 - METARとTAF

カンクン国際空港 ( MMUN / CUN ) - メキシコ キンタナ・ロー州カンクン
飛行場実況気象(Metar)
観測時間08/25 13:44 CDT (08/25 18:44 UTC)
風向・風速東南東 6m/s
視程10km以上
天気現象
少しの雲 雲底高度 460m
全天の8割程度の雲 雲底高度 550m
気温32℃
湿度63%
気圧1014hPa
METARMMUN 251844Z 11011KT 7SM FEW015 BKN018 32/24 A2994 RMK 8/100
過去の天気等 Google飛行場航空写真 Wunderground天気予報

過去48時間のMETAR

飛行場予報(TAF)
発表時間: 8/25 11:36 CDT (8/25 16:36 UTC)
予報対象時間: 25日13時 CDT ~ 26日19時 CDT
風向・風速東南東 5m/s
視程10km以上
全天の4割程度の雲 雲底高度 460m
25日15時 CDT ~ 25日16時 CDT に徐々に
風向・風速東南東 6m/s
25日21時 CDT から
風向・風速東南東 3m/s
視程10km以上
全天の4割程度の雲 雲底高度 460m
26日0時 CDT ~ 26日1時 CDT に徐々に
風向・風速静穏
26日7時 CDT から
風向・風速東南東 3m/s
視程10km以上
天気現象煙霧
全天の4割程度の雲 雲底高度 460m
26日14時 CDT ~ 26日15時 CDT に徐々に
風向・風速東南東 6m/s
TAF MMUN 251636Z 2518/2624 11010KT P6SM SCT015 TX33/2521Z TN25/2612Z
BECMG 2520/2521 12012KT
FM260200 12005KT P6SM SCT015
BECMG 2605/2606 00000KT
FM261200 12005KT 6SM HZ SCT015
BECMG 2619/2620 12012KT